Archival Weather

Chicago/Rockford Intl

Rockford, Illinois (KRFD)

Report from: Thursday, December 7, 2023 10:54 PM CST
Current time: Wednesday, April 24, 2024 2:04 PM CDT

Current weather – Weather history – Daily summaries
Weather forecast

Temperature7.2°C (45.0°F)
Wind chill4.3°C (39.7°F)
Dew point3.9°C (39.0°F)
Winds 9 kts (4.6 m/s, 10.4 mph) South-Southeast (160°)
Visibility10 mi. (16.1 km)
Clouds Sky clear
Altimeter29.68 in.Hg (1005 mB)
Relative humidity80 %
Density altitude-555 ft. (-169 m)
Sea-level pressure100.6 kPa (1006 mB, 29.69 in.Hg)
Remarks Automated weather observing station with precipitation discriminator
Flight conditions Visual Meteorological Conditions
Raw dataKRFD 080454Z 16009KT 10SM CLR 07/04 A2968 RMK AO2 SLP055 T00720039
An error has occurred. This application may no longer respond until reloaded. Reload 🗙